Time;durP1;ratioP1;P1;durP2;ratioP2;P2;SDS_P1;SDS_P2;PMS_P1;PMS_P2;Temp;Humidity;BMP_temperature;BMP_pressure;BME280_temperature;BME280_humidity;BME280_pressure;Samples;Min_cycle;Max_cycle;Signal;HPM_P1;HPM_P2
2021/03/19 00:00:38;;;;;;;;;;;;;;;7.83;100.00;100183.84;5058962;28;19928;-89
2021/03/19 00:03:05;;;;;;;;;;;;;;;7.85;100.00;100184.28;5092305;28;19924;-89
2021/03/19 00:05:31;;;;;;;;;;;;;;;7.79;100.00;100191.38;5092410;28;20031;-89
2021/03/19 00:07:58;;;;;;;;;;;;;;;7.78;100.00;100200.91;5092067;28;19956;-89
2021/03/19 00:10:30;;;;;;;;;;;;;;;7.73;100.00;100192.06;5092283;28;19924;-90
2021/03/19 00:12:58;;;;;;;;;;;;;;;7.72;100.00;100185.72;5092589;28;19931;-89
2021/03/19 00:15:26;;;;;;;;;;;;;;;7.74;100.00;100185.34;5092367;28;19982;-90
2021/03/19 00:17:52;;;;;;;;;;;;;;;7.69;100.00;100189.25;5091996;28;19931;-90
2021/03/19 00:20:24;;;;;;;;;;;;;;;7.61;100.00;100193.13;5092125;28;19932;-89
2021/03/19 00:22:51;;;;;;;;;;;;;;;7.60;100.00;100188.75;5038668;28;20436;-89
2021/03/19 00:25:17;;;;;;;;;;;;;;;7.47;100.00;100204.03;5071854;28;19929;-90
2021/03/19 00:27:44;;;;;;;;;;;;;;;7.40;100.00;100201.16;5066773;28;20318;-89
2021/03/19 00:30:12;;;;;;;;;;;;;;;7.35;100.00;100198.69;5086572;28;19932;-90
2021/03/19 00:32:40;;;;;;;;;;;;;;;7.35;100.00;100204.25;5081783;28;19924;-89
2021/03/19 00:35:10;;;;;;;;;;;;;;;7.31;100.00;100197.84;5078101;28;19924;-89
2021/03/19 00:37:37;;;;;;;;;;;;;;;7.23;100.00;100207.25;5095723;28;19931;-90
2021/03/19 00:40:05;;;;;;;;;;;;;;;7.29;100.00;100216.88;5112549;28;19977;-89
2021/03/19 00:42:32;;;;;;;;;;;;;;;7.32;100.00;100216.13;5078945;28;20398;-89
2021/03/19 00:44:59;;;;;;;;;;;;;;;7.31;100.00;100214.53;5078788;28;19924;-89
2021/03/19 00:47:26;;;;;;;;;;;;;;;7.23;100.00;100218.38;5078545;28;19947;-88
2021/03/19 00:49:52;;;;;;;;;;;;;;;7.24;100.00;100225.53;5095389;28;20337;-89
2021/03/19 00:52:19;;;;;;;;;;;;;;;7.21;100.00;100217.94;5078676;28;20294;-89
2021/03/19 00:54:46;;;;;;;;;;;;;;;7.24;100.00;100218.00;5095436;28;19924;-90
2021/03/19 00:57:12;;;;;;;;;;;;;;;7.10;100.00;100212.22;5095482;28;19924;-89
2021/03/19 00:59:39;;;;;;;;;;;;;;;7.05;100.00;100220.06;5095218;28;19928;-88
2021/03/19 01:02:06;;;;;;;;;;;;;;;7.09;100.00;100220.91;5095410;28;19928;-88
2021/03/19 01:04:35;;;;;;;;;;;;;;;6.97;100.00;100229.44;5078267;28;19989;-89
2021/03/19 01:07:01;;;;;;;;;;;;;;;6.93;100.00;100220.25;5094994;28;19924;-88
2021/03/19 01:09:28;;;;;;;;;;;;;;;6.93;100.00;100228.59;5076278;28;19951;-88
2021/03/19 01:11:54;;;;;;;;;;;;;;;6.94;100.00;100219.91;5096361;28;19928;-88
2021/03/19 01:14:21;;;;;;;;;;;;;;;7.00;100.00;100237.03;5074683;28;20409;-89
2021/03/19 01:16:47;;;;;;;;;;;;;;;7.00;100.00;100231.50;5094319;28;19928;-89
2021/03/19 01:19:14;;;;;;;;;;;;;;;6.95;100.00;100234.59;5066342;28;19925;-88
2021/03/19 01:21:41;;;;;;;;;;;;;;;6.99;100.00;100241.81;5089023;28;20343;-88
2021/03/19 01:24:08;;;;;;;;;;;;;;;6.92;100.00;100247.25;5084714;28;20455;-88
2021/03/19 01:26:34;;;;;;;;;;;;;;;6.96;100.00;100252.88;5094691;28;20562;-88
2021/03/19 01:29:01;;;;;;;;;;;;;;;6.87;100.00;100260.66;5095972;28;19924;-88
2021/03/19 01:31:28;;;;;;;;;;;;;;;6.92;100.00;100268.69;5094477;28;19928;-89
2021/03/19 01:33:55;;;;;;;;;;;;;;;6.89;100.00;100273.00;5077698;28;19924;-89
2021/03/19 01:36:21;;;;;;;;;;;;;;;6.86;100.00;100270.16;5094668;28;19931;-88
2021/03/19 01:38:48;;;;;;;;;;;;;;;6.93;100.00;100259.97;5094347;28;19989;-87
2021/03/19 01:41:15;;;;;;;;;;;;;;;6.88;100.00;100274.16;5077513;28;20383;-87
2021/03/19 01:43:41;;;;;;;;;;;;;;;6.91;100.00;100286.50;5094431;28;19930;-88
2021/03/19 01:46:32;;;;;;;;;;;;;;;6.81;100.00;100276.84;5075867;28;20283;-87
2021/03/19 01:49:18;;;;;;;;;;;;;;;6.76;100.00;100276.31;5094258;28;20368;-88
2021/03/19 01:52:03;;;;;;;;;;;;;;;6.74;100.00;100267.56;5094294;28;19924;-88
2021/03/19 01:54:49;;;;;;;;;;;;;;;6.69;100.00;100271.47;5094179;28;19931;-89
2021/03/19 01:57:34;;;;;;;;;;;;;;;6.62;100.00;100276.84;5077379;28;19952;-88
2021/03/19 02:00:20;;;;;;;;;;;;;;;6.50;100.00;100281.75;5081543;28;20431;-87
2021/03/19 02:03:05;;;;;;;;;;;;;;;6.39;100.00;100289.88;5093789;28;20360;-87
2021/03/19 02:05:50;;;;;;;;;;;;;;;6.33;100.00;100285.81;5076984;28;19923;-88
2021/03/19 02:08:35;;;;;;;;;;;;;;;6.43;100.00;100296.34;5095208;28;20348;-87
2021/03/19 02:11:21;;;;;;;;;;;;;;;6.45;100.00;100293.19;5093848;28;20387;-87
2021/03/19 02:14:06;;;;;;;;;;;;;;;6.45;100.00;100298.75;5057502;28;20317;-88
2021/03/19 02:16:52;;;;;;;;;;;;;;;6.34;100.00;100292.16;5073228;28;20379;-88
2021/03/19 02:19:37;;;;;;;;;;;;;;;6.27;100.00;100292.03;5076906;28;19924;-88
2021/03/19 02:22:22;;;;;;;;;;;;;;;6.34;100.00;100292.16;5094876;28;20326;-87
2021/03/19 02:25:08;;;;;;;;;;;;;;;6.32;100.00;100295.31;5093622;28;20405;-86
2021/03/19 02:27:53;;;;;;;;;;;;;;;6.33;100.00;100296.13;5059691;28;19931;-87
2021/03/19 02:30:39;;;;;;;;;;;;;;;6.30;100.00;100296.84;5076386;28;19931;-87
2021/03/19 02:33:05;;;;;;;;;;;;;;;6.33;100.00;100305.22;5073294;28;19924;-87
2021/03/19 02:35:44;;;;;;;;;;;;;;;6.31;100.00;100304.00;5058095;28;19930;-87
2021/03/19 02:38:11;;;;;;;;;;;;;;;6.25;100.00;100311.00;5076954;28;20020;-87
2021/03/19 02:40:37;;;;;;;;;;;;;;;6.30;100.00;100314.28;5094737;28;20025;-88
2021/03/19 02:43:15;;;;;;;;;;;;;;;6.30;100.00;100317.06;5056150;28;19924;-87
2021/03/19 02:45:42;;;;;;;;;;;;;;;6.33;100.00;100324.66;5088166;28;19924;-88
2021/03/19 02:48:10;;;;;;;;;;;;;;;6.39;100.00;100334.31;5094473;28;20399;-88
2021/03/19 02:50:37;;;;;;;;;;;;;;;6.31;100.00;100317.88;5093753;28;19982;-88
2021/03/19 02:53:04;;;;;;;;;;;;;;;6.36;100.00;100326.72;5076155;28;19932;-86
2021/03/19 02:55:30;;;;;;;;;;;;;;;6.31;100.00;100326.22;5093352;28;19925;-85
2021/03/19 02:57:57;;;;;;;;;;;;;;;6.33;100.00;100332.22;5093842;28;19928;-85
2021/03/19 03:00:24;;;;;;;;;;;;;;;6.30;100.00;100330.16;5093107;28;20011;-85
2021/03/19 03:02:51;;;;;;;;;;;;;;;6.25;100.00;100328.47;5094249;28;20413;-86
2021/03/19 03:05:18;;;;;;;;;;;;;;;6.21;100.00;100326.78;5059314;28;20309;-85
2021/03/19 03:07:44;;;;;;;;;;;;;;;6.21;100.00;100326.78;5094218;28;20007;-85
2021/03/19 03:10:13;;;;;;;;;;;;;;;6.26;100.00;100329.25;5076140;28;19931;-86
2021/03/19 03:12:40;;;;;;;;;;;;;;;6.29;100.00;100318.25;5076029;28;19928;-86
2021/03/19 03:15:08;;;;;;;;;;;;;;;6.31;100.00;100328.97;5092478;28;20329;-87
2021/03/19 03:17:35;;;;;;;;;;;;;;;6.31;100.00;100332.56;5093868;28;19945;-86
2021/03/19 03:20:03;;;;;;;;;;;;;;;6.23;100.00;100341.09;5092633;28;19955;-87
2021/03/19 03:22:38;;;;;;;;;;;;;;;6.23;100.00;100330.00;5092815;28;19928;-85
2021/03/19 03:25:05;;;;;;;;;;;;;;;6.29;100.00;100328.53;5092732;28;19977;-86
2021/03/19 03:27:32;;;;;;;;;;;;;;;6.26;100.00;100332.84;5092511;28;19924;-87
2021/03/19 03:29:59;;;;;;;;;;;;;;;6.27;100.00;100328.13;5072719;28;19924;-86
2021/03/19 03:32:25;;;;;;;;;;;;;;;6.25;100.00;100322.13;5075893;28;19932;-86
2021/03/19 03:34:52;;;;;;;;;;;;;;;6.28;100.00;100316.66;5092277;28;19930;-86
2021/03/19 03:37:18;;;;;;;;;;;;;;;6.11;100.00;100322.63;5092517;28;19942;-86
2021/03/19 03:39:45;;;;;;;;;;;;;;;6.16;100.00;100314.00;5075759;28;20375;-86
2021/03/19 03:42:12;;;;;;;;;;;;;;;6.11;100.00;100310.69;5092152;28;19939;-86
2021/03/19 03:44:38;;;;;;;;;;;;;;;6.15;100.00;100317.94;5093658;28;19928;-86
2021/03/19 03:47:05;;;;;;;;;;;;;;;6.22;100.00;100303.41;5092301;28;19931;-86
2021/03/19 03:49:32;;;;;;;;;;;;;;;6.21;100.00;100324.03;5075722;28;19924;-86
2021/03/19 03:51:58;;;;;;;;;;;;;;;6.11;100.00;100321.81;5093686;28;19928;-87
2021/03/19 03:54:25;;;;;;;;;;;;;;;6.00;100.00;100321.56;5109208;28;20014;-87
2021/03/19 03:56:52;;;;;;;;;;;;;;;6.11;100.00;100330.94;5092148;28;21123;-86
2021/03/19 03:59:18;;;;;;;;;;;;;;;6.10;100.00;100325.75;5092530;28;19928;-86
2021/03/19 04:01:45;;;;;;;;;;;;;;;6.11;100.00;100324.56;5092453;28;19931;-86
2021/03/19 04:04:14;;;;;;;;;;;;;;;6.15;100.00;100331.03;5075393;28;19924;-86
2021/03/19 04:06:40;;;;;;;;;;;;;;;6.19;100.00;100323.56;5083709;28;19946;-86
2021/03/19 04:09:07;;;;;;;;;;;;;;;6.11;100.00;100342.03;5071200;28;20062;-86
2021/03/19 04:11:34;;;;;;;;;;;;;;;6.14;100.00;100333.00;5078189;28;19924;-86
2021/03/19 04:14:00;;;;;;;;;;;;;;;6.04;100.00;100328.03;5078470;28;20398;-87
2021/03/19 04:16:27;;;;;;;;;;;;;;;6.09;100.00;100340.81;5095185;28;19931;-86
2021/03/19 04:18:54;;;;;;;;;;;;;;;6.12;100.00;100348.41;5096019;28;19924;-86
2021/03/19 04:21:21;;;;;;;;;;;;;;;6.06;100.00;100341.53;5079108;28;20279;-86
2021/03/19 04:23:49;;;;;;;;;;;;;;;5.98;100.00;100348.09;5112552;28;19972;-86
2021/03/19 04:26:24;;;;;;;;;;;;;;;6.00;100.00;100351.31;5095562;28;19931;-87
2021/03/19 04:28:52;;;;;;;;;;;;;;;6.02;100.00;100343.41;5095808;28;19924;-86
2021/03/19 04:31:18;;;;;;;;;;;;;;;5.94;100.00;100344.44;5095967;28;19928;-86
2021/03/19 04:33:45;;;;;;;;;;;;;;;5.93;100.00;100349.16;5112513;28;19924;-86
2021/03/19 04:36:12;;;;;;;;;;;;;;;5.87;100.00;100344.25;5096808;28;19925;-87
2021/03/19 04:38:39;;;;;;;;;;;;;;;5.88;100.00;100345.88;5096756;28;19928;-86
2021/03/19 04:41:06;;;;;;;;;;;;;;;5.88;100.00;100340.34;5112371;28;19928;-86
2021/03/19 04:43:33;;;;;;;;;;;;;;;5.89;100.00;100337.19;5075244;28;19967;-86
2021/03/19 04:45:59;;;;;;;;;;;;;;;5.78;100.00;100329.75;5092260;28;19971;-86
2021/03/19 04:48:26;;;;;;;;;;;;;;;5.86;100.00;100331.56;5078902;28;19953;-87
2021/03/19 04:50:53;;;;;;;;;;;;;;;5.82;100.00;100328.69;5095221;28;20589;-87
2021/03/19 04:53:19;;;;;;;;;;;;;;;5.82;100.00;100338.97;5096772;28;19930;-87
2021/03/19 04:55:46;;;;;;;;;;;;;;;5.90;100.00;100344.34;5078247;28;20024;-86
2021/03/19 04:58:12;;;;;;;;;;;;;;;5.88;100.00;100343.88;5075392;28;20364;-86
2021/03/19 05:00:39;;;;;;;;;;;;;;;5.76;100.00;100354.25;5106910;28;19928;-86
2021/03/19 05:03:06;;;;;;;;;;;;;;;5.86;100.00;100346.22;5095343;28;20291;-86
2021/03/19 05:05:33;;;;;;;;;;;;;;;5.86;100.00;100353.75;5075102;28;19925;-86
2021/03/19 05:08:00;;;;;;;;;;;;;;;5.78;100.00;100357.47;5077757;28;19924;-86
2021/03/19 05:10:29;;;;;;;;;;;;;;;5.84;100.00;100356.06;5095196;28;19924;-86
2021/03/19 05:12:56;;;;;;;;;;;;;;;5.84;100.00;100367.97;5077938;28;19931;-86
2021/03/19 05:15:24;;;;;;;;;;;;;;;5.82;100.00;100363.94;5094877;28;20007;-85
2021/03/19 05:17:51;;;;;;;;;;;;;;;5.82;100.00;100373.06;5093822;28;19931;-86
2021/03/19 05:20:18;;;;;;;;;;;;;;;5.84;100.00;100362.44;5100078;28;19931;-86
2021/03/19 05:22:45;;;;;;;;;;;;;;;5.84;100.00;100372.72;5078086;28;20290;-86
2021/03/19 05:25:14;;;;;;;;;;;;;;;5.78;100.00;100366.63;5111426;28;19938;-86
2021/03/19 05:27:40;;;;;;;;;;;;;;;5.80;100.00;100363.50;5077818;28;20081;-86
2021/03/19 05:30:08;;;;;;;;;;;;;;;5.84;100.00;100373.53;5075825;28;19959;-86
2021/03/19 05:32:35;;;;;;;;;;;;;;;5.88;100.00;100373.63;5094636;28;20397;-86
2021/03/19 05:35:02;;;;;;;;;;;;;;;5.74;100.00;100368.50;5094580;28;19924;-86
2021/03/19 05:37:29;;;;;;;;;;;;;;;5.82;100.00;100369.50;5063709;28;19924;-86
2021/03/19 05:39:57;;;;;;;;;;;;;;;5.81;100.00;100365.91;5060827;28;19931;-86
2021/03/19 05:42:25;;;;;;;;;;;;;;;5.82;100.00;100373.06;5094445;28;19924;-87
2021/03/19 05:44:58;;;;;;;;;;;;;;;5.85;100.00;100372.34;5094322;28;19974;-86
2021/03/19 05:47:25;;;;;;;;;;;;;;;5.91;100.00;100382.00;5060628;28;19966;-87
2021/03/19 05:49:55;;;;;;;;;;;;;;;5.95;100.00;100384.88;5094382;28;19931;-87
2021/03/19 05:52:23;;;;;;;;;;;;;;;5.92;100.00;100385.59;5077741;28;19924;-86
2021/03/19 05:54:52;;;;;;;;;;;;;;;5.84;100.00;100395.72;5094027;28;19924;-87
2021/03/19 05:57:27;;;;;;;;;;;;;;;5.89;100.00;100400.19;5077417;28;19935;-87
2021/03/19 05:59:56;;;;;;;;;;;;;;;5.72;100.00;100397.75;5094265;28;19924;-86
2021/03/19 06:02:41;;;;;;;;;;;;;;;5.78;100.00;100397.13;5094050;28;19924;-86
2021/03/19 06:05:16;;;;;;;;;;;;;;;5.80;100.00;100405.09;5077436;28;19924;-86
2021/03/19 06:07:44;;;;;;;;;;;;;;;5.80;100.00;100410.63;5093967;28;19935;-86
2021/03/19 06:10:23;;;;;;;;;;;;;;;5.77;100.00;100411.34;5074336;28;19974;-86
2021/03/19 06:12:51;;;;;;;;;;;;;;;5.78;100.00;100437.91;5076769;28;20440;-86
2021/03/19 06:15:32;;;;;;;;;;;;;;;5.76;100.00;100459.66;5093898;28;19925;-86
2021/03/19 06:18:01;;;;;;;;;;;;;;;5.65;100.00;100453.84;5073786;28;20287;-86
2021/03/19 06:20:28;;;;;;;;;;;;;;;5.63;100.00;100462.50;5064997;28;19928;-86
2021/03/19 06:23:00;;;;;;;;;;;;;;;5.63;100.00;100462.50;5085634;28;19924;-86
2021/03/19 06:25:55;;;;;;;;;;;;;;;5.58;100.00;100460.03;5094732;28;20034;-87
2021/03/19 06:28:27;;;;;;;;;;;;;;;5.55;100.00;100466.28;5094749;28;20397;-86
2021/03/19 06:31:13;;;;;;;;;;;;;;;5.57;100.00;100463.94;5094553;28;19924;-86
2021/03/19 06:33:39;;;;;;;;;;;;;;;5.58;100.00;100467.53;5107632;28;19928;-86
2021/03/19 06:36:09;;;;;;;;;;;;;;;5.67;100.00;100467.34;5078289;28;19924;-86
2021/03/19 06:38:41;;;;;;;;;;;;;;;5.68;100.00;100475.31;5089131;28;19928;-86
2021/03/19 06:41:29;;;;;;;;;;;;;;;5.58;100.00;100471.13;5094556;28;19924;-86
2021/03/19 06:44:14;;;;;;;;;;;;;;;5.63;100.00;100479.16;5087434;28;19924;-86
2021/03/19 06:46:41;;;;;;;;;;;;;;;5.57;100.00;100494.44;5101444;28;19928;-85
2021/03/19 06:49:10;;;;;;;;;;;;;;;5.54;100.00;100491.59;5059999;28;19939;-85
2021/03/19 06:51:43;;;;;;;;;;;;;;;5.56;100.00;100490.06;5088158;28;19963;-77
2021/03/19 06:54:22;;;;;;;;;;;;;;;5.55;100.00;101203.09;5083492;28;19947;-89
2021/03/19 06:57:07;;;;;;;;;;;;;;;5.61;100.00;101235.00;5067126;28;19927;-90
2021/03/19 06:59:50;;;;;;;;;;;;;;;5.62;100.00;101283.00;5090364;28;20010;-88
2021/03/19 07:02:20;;;;;;;;;;;;;;;5.63;100.00;101309.56;5089680;28;20301;-87
2021/03/19 07:05:00;;;;;;;;;;;;;;;5.48;100.00;101336.72;5090283;28;19928;-88
2021/03/19 07:07:41;;;;;;;;;;;;;;;5.54;100.00;101401.16;5088780;28;19932;-86
2021/03/19 07:10:27;;;;;;;;;;;;;;;5.48;100.00;101458.75;5073183;28;20090;-87
2021/03/19 07:12:54;;;;;;;;;;;;;;;5.56;100.00;101516.16;5054049;28;20043;-84
2021/03/19 07:15:28;;;;;;;;;;;;;;;5.58;100.00;101536.06;5073186;28;20033;-84
2021/03/19 07:17:56;;;;;;;;;;;;;;;5.60;100.00;101571.78;5089747;28;20057;-86
2021/03/19 07:20:33;;;;;;;;;;;;;;;5.58;100.00;101586.00;5067051;28;19925;-87
2021/03/19 07:23:15;;;;;;;;;;;;;;;5.62;100.00;101823.88;5072302;28;19928;-86
2021/03/19 07:25:55;;;;;;;;;;;;;;;5.57;100.00;101820.09;5093115;28;19924;-87
2021/03/19 07:28:39;;;;;;;;;;;;;;;5.65;100.00;101812.16;5072800;28;19924;-84
2021/03/19 07:31:06;;;;;;;;;;;;;;;5.65;100.00;101823.25;5074818;28;19966;-90
2021/03/19 07:33:36;;;;;;;;;;;;;;;5.66;100.00;101819.31;5091880;28;20379;-89
2021/03/19 07:36:12;;;;;;;;;;;;;;;5.77;100.00;101826.97;5108505;28;19925;-88
2021/03/19 07:38:54;;;;;;;;;;;;;;;5.70;100.00;101814.75;5092884;28;19928;-88
2021/03/19 07:41:21;;;;;;;;;;;;;;;5.67;100.00;101827.31;5092597;28;19924;-89
2021/03/19 07:44:01;;;;;;;;;;;;;;;5.82;100.00;101839.91;5079270;28;19928;-88
2021/03/19 07:46:31;;;;;;;;;;;;;;;5.76;100.00;101853.09;5088848;28;19970;-90
2021/03/19 07:49:13;;;;;;;;;;;;;;;5.82;100.00;101851.00;5078341;28;20371;-88
2021/03/19 07:51:47;;;;;;;;;;;;;;;5.91;100.00;101857.41;5063142;28;19924;-89
2021/03/19 07:54:31;;;;;;;;;;;;;;;6.01;100.00;101865.41;5096549;28;19969;-88
2021/03/19 07:57:03;;;;;;;;;;;;;;;5.96;100.00;101862.78;5076603;28;20011;-88
2021/03/19 07:59:48;;;;;;;;;;;;;;;5.96;100.00;101873.88;5076312;28;19924;-88
2021/03/19 08:02:18;;;;;;;;;;;;;;;5.88;100.00;101871.94;5063925;28;19974;-88
2021/03/19 08:04:57;;;;;;;;;;;;;;;5.97;100.00;101875.53;5063079;28;19924;-88
2021/03/19 08:07:27;;;;;;;;;;;;;;;6.06;100.00;101868.81;5079492;28;19924;-90
2021/03/19 08:09:54;;;;;;;;;;;;;;;6.10;100.00;101880.94;5096331;28;20014;-88
2021/03/19 08:12:39;;;;;;;;;;;;;;;6.14;100.00;101892.19;5079609;28;20028;-88
2021/03/19 08:15:12;;;;;;;;;;;;;;;6.26;100.00;101886.78;5062649;28;19924;-89
2021/03/19 08:17:58;;;;;;;;;;;;;;;6.41;100.00;101894.63;5075993;28;20070;-87
2021/03/19 08:20:32;;;;;;;;;;;;;;;6.42;100.00;101905.41;5095330;28;19924;-88
2021/03/19 08:23:11;;;;;;;;;;;;;;;6.47;100.00;101918.31;5096228;28;19924;-88
2021/03/19 08:25:41;;;;;;;;;;;;;;;6.44;100.00;101907.84;5065787;28;19924;-88
2021/03/19 08:28:26;;;;;;;;;;;;;;;6.11;100.00;101896.44;5075455;28;19925;-86
2021/03/19 08:30:56;;;;;;;;;;;;;;;6.28;100.00;101903.97;5095810;28;19925;-87
2021/03/19 08:33:35;;;;;;;;;;;;;;;6.32;100.00;101907.69;5095613;28;19924;-85
2021/03/19 08:36:06;;;;;;;;;;;;;;;6.42;100.00;101904.63;5095958;28;20374;-85
2021/03/19 08:38:36;;;;;;;;;;;;;;;6.31;100.00;101897.75;5078645;28;19928;-85
2021/03/19 08:41:23;;;;;;;;;;;;;;;6.46;100.00;101908.34;5095740;28;19947;-85
2021/03/19 08:43:54;;;;;;;;;;;;;;;6.57;100.00;101918.00;5095421;28;19924;-86
2021/03/19 08:46:24;;;;;;;;;;;;;;;6.60;100.00;101920.13;5095577;28;19931;-85
2021/03/19 08:48:57;;;;;;;;;;;;;;;6.76;100.00;101926.78;5095093;28;19947;-86
2021/03/19 08:51:27;;;;;;;;;;;;;;;6.69;100.00;101926.47;5095587;28;19924;-86
2021/03/19 08:54:12;;;;;;;;;;;;;;;6.78;100.00;101918.94;5091527;28;19977;-86
2021/03/19 08:56:54;;;;;;;;;;;;;;;6.69;100.00;101920.91;5055756;28;19931;-88
2021/03/19 08:59:29;;;;;;;;;;;;;;;6.60;100.00;101911.78;5075414;28;20334;-88
2021/03/19 09:01:57;;;;;;;;;;;;;;;6.48;100.00;101897.75;5078384;28;20010;-88
2021/03/19 09:04:42;;;;;;;;;;;;;;;6.55;100.00;101903.59;5095082;28;20382;-87
2021/03/19 09:07:25;;;;;;;;;;;;;;;6.75;100.00;101917.66;5078611;28;19935;-86
2021/03/19 09:09:53;;;;;;;;;;;;;;;6.83;100.00;101921.56;5069732;28;19939;-86
2021/03/19 09:12:30;;;;;;;;;;;;;;;6.80;100.00;101919.44;5108363;28;20329;-86
2021/03/19 09:15:15;;;;;;;;;;;;;;;6.94;100.00;101917.25;5073118;28;20287;-87
2021/03/19 09:17:51;;;;;;;;;;;;;;;7.03;100.00;101920.84;5050751;28;19924;-86
2021/03/19 09:20:24;;;;;;;;;;;;;;;7.05;100.00;101926.88;5089209;28;19930;-88
2021/03/19 09:23:12;;;;;;;;;;;;;;;6.87;100.00;101905.84;5073042;28;20373;-88
2021/03/19 09:25:43;;;;;;;;;;;;;;;6.95;100.00;101907.78;5055528;28;19924;-81
2021/03/19 09:28:18;;;;;;;;;;;;;;;6.95;100.00;101905.00;5091834;28;19930;-87
2021/03/19 09:30:50;;;;;;;;;;;;;;;7.09;100.00;101900.03;5089688;28;19966;-83
2021/03/19 09:33:36;;;;;;;;;;;;;;;7.13;100.00;101909.38;5091263;28;20496;-82
2021/03/19 09:36:02;;;;;;;;;;;;;;;6.99;100.00;101886.50;5056505;28;20375;-82
2021/03/19 09:38:30;;;;;;;;;;;;;;;7.18;100.00;101893.31;5083566;28;20387;-82
2021/03/19 09:41:01;;;;;;;;;;;;;;;7.33;100.00;101898.31;5090037;28;19924;-83
2021/03/19 09:43:40;;;;;;;;;;;;;;;7.49;100.00;101898.56;5087801;28;19924;-83
2021/03/19 09:46:24;;;;;;;;;;;;;;;7.31;100.00;101878.34;5074790;28;19931;-85
2021/03/19 09:48:54;;;;;;;;;;;;;;;7.41;100.00;101871.59;5070408;28;20011;-85
2021/03/19 09:51:28;;;;;;;;;;;;;;;7.46;100.00;101863.06;5090171;28;19924;-83
2021/03/19 09:53:56;;;;;;;;;;;;;;;7.36;100.00;101861.47;5070713;28;20375;-83
2021/03/19 09:56:26;;;;;;;;;;;;;;;7.42;100.00;101850.16;5090691;28;20571;-86
2021/03/19 09:59:17;;;;;;;;;;;;;;;7.21;100.00;101838.97;5073742;28;19928;-84
2021/03/19 10:01:45;;;;;;;;;;;;;;;7.25;100.00;101823.25;5059967;28;19925;-85
2021/03/19 10:04:25;;;;;;;;;;;;;;;7.26;100.00;101820.16;5099401;28;19977;-85
2021/03/19 10:06:51;;;;;;;;;;;;;;;7.28;100.00;101811.47;5091271;28;19924;-84
2021/03/19 10:09:21;;;;;;;;;;;;;;;7.15;100.00;101795.81;5085863;28;19928;-85
2021/03/19 10:11:52;;;;;;;;;;;;;;;7.18;100.00;101793.19;5061739;28;19925;-85
2021/03/19 10:14:24;;;;;;;;;;;;;;;7.14;100.00;101783.06;5105462;28;19970;-85
2021/03/19 10:16:51;;;;;;;;;;;;;;;7.13;100.00;101770.34;5107004;28;19997;-84
2021/03/19 10:19:39;;;;;;;;;;;;;;;6.99;100.00;101762.22;5061574;28;19928;-84
2021/03/19 10:22:06;;;;;;;;;;;;;;;7.13;100.00;101764.78;5089977;28;19995;-84
2021/03/19 10:24:33;;;;;;;;;;;;;;;7.24;100.00;101752.91;5087808;28;20382;-86
2021/03/19 10:27:02;;;;;;;;;;;;;;;7.41;100.00;101743.63;5091892;28;20366;-89
2021/03/19 10:29:33;;;;;;;;;;;;;;;7.50;100.00;101752.72;5073191;28;20009;-85
2021/03/19 10:32:01;;;;;;;;;;;;;;;7.52;100.00;101739.31;5090291;28;19932;-83
2021/03/19 10:34:33;;;;;;;;;;;;;;;7.65;100.00;101732.63;5090578;28;19957;-83
2021/03/19 10:37:20;;;;;;;;;;;;;;;7.74;100.00;101721.44;5080693;28;19924;-86
2021/03/19 10:39:52;;;;;;;;;;;;;;;7.53;100.00;101685.28;5056446;28;20015;-85
2021/03/19 10:42:24;;;;;;;;;;;;;;;7.76;100.00;101672.63;5088900;28;20436;-84
2021/03/19 10:44:54;;;;;;;;;;;;;;;7.77;100.00;101559.31;5088123;28;20001;-84
2021/03/19 10:47:33;;;;;;;;;;;;;;;7.59;100.00;101542.00;5071209;28;19938;-85
2021/03/19 10:50:15;;;;;;;;;;;;;;;7.46;100.00;101504.19;5089857;28;19924;-86
2021/03/19 10:52:53;;;;;;;;;;;;;;;7.53;100.00;101482.16;5088634;28;20397;-86
2021/03/19 10:55:26;;;;;;;;;;;;;;;7.37;100.00;101464.53;5056705;28;19924;-87
2021/03/19 10:58:06;;;;;;;;;;;;;;;7.57;100.00;101452.50;5076177;28;19924;-86
2021/03/19 11:00:42;;;;;;;;;;;;;;;7.44;100.00;101434.16;5072771;28;19924;-85
2021/03/19 11:03:23;;;;;;;;;;;;;;;7.45;100.00;101421.06;5089276;28;19977;-86
2021/03/19 11:06:01;;;;;;;;;;;;;;;7.70;100.00;101417.94;5088785;28;19965;-85
2021/03/19 11:08:28;;;;;;;;;;;;;;;7.60;100.00;101401.72;5076563;28;20334;-86
2021/03/19 11:10:55;;;;;;;;;;;;;;;7.69;100.00;101388.50;5089759;28;19924;-84
2021/03/19 11:13:27;;;;;;;;;;;;;;;7.73;100.00;101369.94;5084112;28;20068;-84
2021/03/19 11:15:59;;;;;;;;;;;;;;;7.76;100.00;101360.88;5089324;28;19931;-85
2021/03/19 11:18:34;;;;;;;;;;;;;;;7.79;100.00;101339.88;5072006;28;19931;-79
2021/03/19 11:21:07;;;;;;;;;;;;;;;7.82;100.00;101320.50;5089139;28;20547;-87
2021/03/19 11:23:36;;;;;;;;;;;;;;;7.84;100.00;101304.28;5089453;28;20001;-85
2021/03/19 11:26:19;;;;;;;;;;;;;;;7.83;100.00;101282.38;5055237;28;19931;-80
2021/03/19 11:28:49;;;;;;;;;;;;;;;7.86;100.00;101254.63;5089034;28;20282;-91
2021/03/19 11:31:26;;;;;;;;;;;;;;;7.88;100.00;101245.91;5077398;28;19928;-83
2021/03/19 11:33:58;;;;;;;;;;;;;;;7.98;100.00;101225.94;5087625;28;20641;-86
2021/03/19 11:36:27;;;;;;;;;;;;;;;7.75;100.00;101195.06;5089957;28;19935;-79
2021/03/19 11:38:54;;;;;;;;;;;;;;;7.56;100.00;101169.84;5088129;28;20014;-81
2021/03/19 11:41:33;;;;;;;;;;;;;;;7.47;100.00;101169.19;5086612;28;19930;-81
2021/03/19 11:44:00;;;;;;;;;;;;;;;7.50;100.00;101151.78;5087027;28;20368;-83
2021/03/19 11:46:28;;;;;;;;;;;;;;;7.45;100.00;101129.78;5076806;28;20013;-93
2021/03/19 11:48:55;;;;;;;;;;;;;;;7.49;100.00;101124.31;5086914;28;19964;-84
2021/03/19 11:51:31;;;;;;;;;;;;;;;7.45;100.00;101110.31;5092290;28;19952;-85
2021/03/19 11:53:58;;;;;;;;;;;;;;;7.50;100.00;101096.16;5093520;28;19928;-84
2021/03/19 11:56:28;;;;;;;;;;;;;;;7.59;100.00;101082.09;5092265;28;19924;-83
2021/03/19 11:58:58;;;;;;;;;;;;;;;7.71;100.00;100929.78;5092740;28;19924;-84
2021/03/19 12:01:27;;;;;;;;;;;;;;;7.86;100.00;100919.81;5093007;28;19924;-84
2021/03/19 12:03:54;;;;;;;;;;;;;;;7.89;100.00;100908.75;5098537;28;19924;-84
2021/03/19 12:06:22;;;;;;;;;;;;;;;8.00;100.00;100911.78;5088976;28;19924;-85
2021/03/19 12:08:50;;;;;;;;;;;;;;;8.12;100.00;100892.19;5080116;28;20019;-84
2021/03/19 12:11:28;;;;;;;;;;;;;;;8.02;100.00;100868.50;5091462;28;19924;-85
2021/03/19 12:13:55;;;;;;;;;;;;;;;7.94;100.00;100861.16;5090659;28;19925;-84
2021/03/19 12:16:23;;;;;;;;;;;;;;;7.77;100.00;100844.84;5091781;28;20105;-85
2021/03/19 12:18:50;;;;;;;;;;;;;;;7.99;100.00;100833.03;5092389;28;20016;-84
2021/03/19 12:21:17;;;;;;;;;;;;;;;8.15;100.00;100827.44;5089608;28;19977;-85
2021/03/19 12:23:44;;;;;;;;;;;;;;;8.21;100.00;100804.47;5092365;28;19924;-86
2021/03/19 12:26:10;;;;;;;;;;;;;;;8.05;100.00;100789.81;5073525;28;19924;-85
2021/03/19 12:28:37;;;;;;;;;;;;;;;7.81;100.00;100767.00;5075187;28;20402;-84
2021/03/19 12:31:05;;;;;;;;;;;;;;;7.88;100.00;100747.66;5078148;28;20023;-84
2021/03/19 12:33:33;;;;;;;;;;;;;;;7.93;100.00;100742.63;5083161;28;20381;-84
2021/03/19 12:36:00;;;;;;;;;;;;;;;7.88;100.00;100736.53;5096080;28;19924;-82
2021/03/19 12:38:27;;;;;;;;;;;;;;;7.71;100.00;100729.44;5095929;28;19924;-84
2021/03/19 12:40:55;;;;;;;;;;;;;;;7.68;100.00;100724.59;5086341;28;19924;-85
2021/03/19 12:43:22;;;;;;;;;;;;;;;7.71;100.00;100717.50;5095487;28;19924;-85
2021/03/19 12:45:49;;;;;;;;;;;;;;;7.77;100.00;100714.06;5062352;28;19990;-83
2021/03/19 12:48:16;;;;;;;;;;;;;;;7.77;100.00;100716.06;5095624;28;19950;-84
2021/03/19 12:50:43;;;;;;;;;;;;;;;7.75;100.00;100716.41;5095540;28;19967;-83
2021/03/19 12:53:11;;;;;;;;;;;;;;;7.91;100.00;100717.13;5093145;28;19946;-82
2021/03/19 12:55:38;;;;;;;;;;;;;;;7.91;100.00;100706.00;5073041;28;20385;-82
2021/03/19 12:58:05;;;;;;;;;;;;;;;7.89;100.00;100697.22;5092450;28;19932;-83